sensor_id;sensor_type;location;lat;lon;timestamp;pressure;altitude;pressure_sealevel;temperature
69545;BMP180;56766;52.260;20.746;2022-11-20T00:01:28;100259.40;;;-3.30
69545;BMP180;56766;52.260;20.746;2022-11-20T00:03:57;100259.40;;;-3.40
69545;BMP180;56766;52.260;20.746;2022-11-20T00:06:27;100252.20;;;-3.42
69545;BMP180;56766;52.260;20.746;2022-11-20T00:08:58;100255.60;;;-3.50
69545;BMP180;56766;52.260;20.746;2022-11-20T00:11:28;100259.60;;;-3.60
69545;BMP180;56766;52.260;20.746;2022-11-20T00:14:00;100260.60;;;-3.62
69545;BMP180;56766;52.260;20.746;2022-11-20T00:16:30;100262.40;;;-3.70
69545;BMP180;56766;52.260;20.746;2022-11-20T00:18:57;100264.60;;;-3.70
69545;BMP180;56766;52.260;20.746;2022-11-20T00:21:26;100259.00;;;-3.70
69545;BMP180;56766;52.260;20.746;2022-11-20T00:23:56;100260.80;;;-3.70
69545;BMP180;56766;52.260;20.746;2022-11-20T00:26:26;100265.20;;;-3.70
69545;BMP180;56766;52.260;20.746;2022-11-20T00:28:59;100264.20;;;-3.62
69545;BMP180;56766;52.260;20.746;2022-11-20T00:31:27;100272.60;;;-3.60
69545;BMP180;56766;52.260;20.746;2022-11-20T00:33:55;100264.60;;;-3.60
69545;BMP180;56766;52.260;20.746;2022-11-20T00:36:25;100255.40;;;-3.50
69545;BMP180;56766;52.260;20.746;2022-11-20T00:38:55;100259.40;;;-3.50
69545;BMP180;56766;52.260;20.746;2022-11-20T00:41:25;100262.60;;;-3.50
69545;BMP180;56766;52.260;20.746;2022-11-20T00:43:54;100258.80;;;-3.50
69545;BMP180;56766;52.260;20.746;2022-11-20T00:46:25;100250.40;;;-3.50
69545;BMP180;56766;52.260;20.746;2022-11-20T00:48:52;100251.60;;;-3.42
69545;BMP180;56766;52.260;20.746;2022-11-20T00:51:22;100249.40;;;-3.40
69545;BMP180;56766;52.260;20.746;2022-11-20T00:53:50;100247.80;;;-3.40
69545;BMP180;56766;52.260;20.746;2022-11-20T00:56:19;100242.80;;;-3.40
69545;BMP180;56766;52.260;20.746;2022-11-20T00:58:48;100245.40;;;-3.38
69545;BMP180;56766;52.260;20.746;2022-11-20T01:01:25;100240.40;;;-3.32
69545;BMP180;56766;52.260;20.746;2022-11-20T01:03:56;100231.60;;;-3.30
69545;BMP180;56766;52.260;20.746;2022-11-20T01:06:32;100231.80;;;-3.30
69545;BMP180;56766;52.260;20.746;2022-11-20T01:09:05;100233.60;;;-3.30
69545;BMP180;56766;52.260;20.746;2022-11-20T01:11:37;100237.60;;;-3.30
69545;BMP180;56766;52.260;20.746;2022-11-20T01:14:10;100232.40;;;-3.30
69545;BMP180;56766;52.260;20.746;2022-11-20T01:16:41;100227.00;;;-3.30
69545;BMP180;56766;52.260;20.746;2022-11-20T01:19:16;100226.60;;;-3.26
69545;BMP180;56766;52.260;20.746;2022-11-20T01:21:47;100220.40;;;-3.20
69545;BMP180;56766;52.260;20.746;2022-11-20T01:24:17;100216.60;;;-3.20
69545;BMP180;56766;52.260;20.746;2022-11-20T01:26:48;100224.40;;;-3.20
69545;BMP180;56766;52.260;20.746;2022-11-20T01:29:24;100223.80;;;-3.20
69545;BMP180;56766;52.260;20.746;2022-11-20T01:31:51;100230.20;;;-3.10
69545;BMP180;56766;52.260;20.746;2022-11-20T01:34:21;100225.40;;;-3.10
69545;BMP180;56766;52.260;20.746;2022-11-20T01:36:50;100229.20;;;-3.10
69545;BMP180;56766;52.260;20.746;2022-11-20T01:39:24;100230.20;;;-3.10
69545;BMP180;56766;52.260;20.746;2022-11-20T01:41:55;100232.00;;;-3.10
69545;BMP180;56766;52.260;20.746;2022-11-20T01:44:51;100226.60;;;-3.10
69545;BMP180;56766;52.260;20.746;2022-11-20T01:47:44;100231.80;;;-3.10
69545;BMP180;56766;52.260;20.746;2022-11-20T01:50:23;100226.60;;;-3.10
69545;BMP180;56766;52.260;20.746;2022-11-20T01:53:01;100228.80;;;-3.10
69545;BMP180;56766;52.260;20.746;2022-11-20T01:55:35;100226.80;;;-3.00
69545;BMP180;56766;52.260;20.746;2022-11-20T01:58:04;100225.60;;;-3.00
69545;BMP180;56766;52.260;20.746;2022-11-20T02:00:32;100225.40;;;-3.00
69545;BMP180;56766;52.260;20.746;2022-11-20T02:03:09;100222.20;;;-3.00
69545;BMP180;56766;52.260;20.746;2022-11-20T02:06:12;100230.60;;;-3.00
69545;BMP180;56766;52.260;20.746;2022-11-20T02:08:40;100229.60;;;-2.90
69545;BMP180;56766;52.260;20.746;2022-11-20T02:11:07;100220.60;;;-2.90
69545;BMP180;56766;52.260;20.746;2022-11-20T02:13:34;100222.20;;;-2.90
69545;BMP180;56766;52.260;20.746;2022-11-20T02:18:47;100220.20;;;-2.90
69545;BMP180;56766;52.260;20.746;2022-11-20T02:24:26;100219.80;;;-2.90
69545;BMP180;56766;52.260;20.746;2022-11-20T02:27:06;100215.20;;;-2.90
69545;BMP180;56766;52.260;20.746;2022-11-20T02:29:51;100202.80;;;-2.82
69545;BMP180;56766;52.260;20.746;2022-11-20T02:34:55;100200.40;;;-2.90
69545;BMP180;56766;52.260;20.746;2022-11-20T02:37:32;100198.00;;;-2.90
69545;BMP180;56766;52.260;20.746;2022-11-20T02:40:00;100204.60;;;-2.90
69545;BMP180;56766;52.260;20.746;2022-11-20T02:42:27;100202.80;;;-2.90
69545;BMP180;56766;52.260;20.746;2022-11-20T02:44:54;100193.60;;;-2.90
69545;BMP180;56766;52.260;20.746;2022-11-20T02:47:20;100215.60;;;-2.90
69545;BMP180;56766;52.260;20.746;2022-11-20T02:49:47;100213.40;;;-2.90
69545;BMP180;56766;52.260;20.746;2022-11-20T02:52:13;100214.80;;;-2.84
69545;BMP180;56766;52.260;20.746;2022-11-20T02:54:40;100211.60;;;-2.82
69545;BMP180;56766;52.260;20.746;2022-11-20T02:57:07;100208.40;;;-2.82
69545;BMP180;56766;52.260;20.746;2022-11-20T02:59:33;100210.20;;;-2.80
69545;BMP180;56766;52.260;20.746;2022-11-20T03:02:00;100208.80;;;-2.84
69545;BMP180;56766;52.260;20.746;2022-11-20T03:04:26;100208.20;;;-2.88
69545;BMP180;56766;52.260;20.746;2022-11-20T03:06:53;100209.00;;;-2.90
69545;BMP180;56766;52.260;20.746;2022-11-20T03:09:20;100208.20;;;-2.90
69545;BMP180;56766;52.260;20.746;2022-11-20T03:11:46;100207.80;;;-2.90
69545;BMP180;56766;52.260;20.746;2022-11-20T03:14:14;100202.80;;;-2.90
69545;BMP180;56766;52.260;20.746;2022-11-20T03:16:40;100204.80;;;-2.90
69545;BMP180;56766;52.260;20.746;2022-11-20T03:19:07;100205.60;;;-2.90
69545;BMP180;56766;52.260;20.746;2022-11-20T03:21:34;100203.00;;;-2.90
69545;BMP180;56766;52.260;20.746;2022-11-20T03:24:02;100200.80;;;-2.90
69545;BMP180;56766;52.260;20.746;2022-11-20T03:26:28;100203.60;;;-2.90
69545;BMP180;56766;52.260;20.746;2022-11-20T03:28:59;100198.40;;;-3.00
69545;BMP180;56766;52.260;20.746;2022-11-20T03:31:31;100205.40;;;-3.00
69545;BMP180;56766;52.260;20.746;2022-11-20T03:33:59;100200.20;;;-3.10
69545;BMP180;56766;52.260;20.746;2022-11-20T03:36:27;100196.80;;;-3.14
69545;BMP180;56766;52.260;20.746;2022-11-20T03:38:56;100198.20;;;-3.20
69545;BMP180;56766;52.260;20.746;2022-11-20T03:41:30;100195.00;;;-3.30
69545;BMP180;56766;52.260;20.746;2022-11-20T03:44:04;100196.00;;;-3.40
69545;BMP180;56766;52.260;20.746;2022-11-20T03:46:31;100191.40;;;-3.50
69545;BMP180;56766;52.260;20.746;2022-11-20T03:48:59;100195.60;;;-3.60
69545;BMP180;56766;52.260;20.746;2022-11-20T03:51:32;100196.80;;;-3.70
69545;BMP180;56766;52.260;20.746;2022-11-20T03:54:04;100193.80;;;-3.80
69545;BMP180;56766;52.260;20.746;2022-11-20T03:56:36;100195.40;;;-3.82
69545;BMP180;56766;52.260;20.746;2022-11-20T03:59:04;100196.60;;;-3.90
69545;BMP180;56766;52.260;20.746;2022-11-20T04:01:34;100197.60;;;-3.94
69545;BMP180;56766;52.260;20.746;2022-11-20T04:04:02;100199.40;;;-4.00
69545;BMP180;56766;52.260;20.746;2022-11-20T04:06:36;100202.60;;;-4.00
69545;BMP180;56766;52.260;20.746;2022-11-20T04:09:04;100209.00;;;-4.10
69545;BMP180;56766;52.260;20.746;2022-11-20T04:11:35;100211.40;;;-4.04
69545;BMP180;56766;52.260;20.746;2022-11-20T04:14:06;100209.80;;;-4.02
69545;BMP180;56766;52.260;20.746;2022-11-20T04:16:35;100206.00;;;-4.00
69545;BMP180;56766;52.260;20.746;2022-11-20T04:19:06;100209.80;;;-4.00
69545;BMP180;56766;52.260;20.746;2022-11-20T04:21:33;100207.80;;;-4.00
69545;BMP180;56766;52.260;20.746;2022-11-20T04:24:00;100211.20;;;-4.00
69545;BMP180;56766;52.260;20.746;2022-11-20T04:26:29;100208.00;;;-4.02
69545;BMP180;56766;52.260;20.746;2022-11-20T04:28:58;100215.40;;;-4.10
69545;BMP180;56766;52.260;20.746;2022-11-20T04:31:32;100209.00;;;-4.10
69545;BMP180;56766;52.260;20.746;2022-11-20T04:34:05;100206.80;;;-4.10
69545;BMP180;56766;52.260;20.746;2022-11-20T04:36:34;100208.60;;;-4.14
69545;BMP180;56766;52.260;20.746;2022-11-20T04:39:05;100208.20;;;-4.20
69545;BMP180;56766;52.260;20.746;2022-11-20T04:41:36;100210.60;;;-4.20
69545;BMP180;56766;52.260;20.746;2022-11-20T04:44:05;100200.20;;;-4.30
69545;BMP180;56766;52.260;20.746;2022-11-20T04:46:40;100205.20;;;-4.30
69545;BMP180;56766;52.260;20.746;2022-11-20T04:49:12;100198.80;;;-4.38
69545;BMP180;56766;52.260;20.746;2022-11-20T04:51:39;100203.20;;;-4.40
69545;BMP180;56766;52.260;20.746;2022-11-20T04:54:06;100201.20;;;-4.40
69545;BMP180;56766;52.260;20.746;2022-11-20T04:56:32;100199.00;;;-4.50
69545;BMP180;56766;52.260;20.746;2022-11-20T04:59:01;100200.00;;;-4.50
69545;BMP180;56766;52.260;20.746;2022-11-20T05:01:28;100196.60;;;-4.60
69545;BMP180;56766;52.260;20.746;2022-11-20T05:03:55;100191.60;;;-4.66
69545;BMP180;56766;52.260;20.746;2022-11-20T05:06:22;100196.20;;;-4.70
69545;BMP180;56766;52.260;20.746;2022-11-20T05:08:49;100193.00;;;-4.70
69545;BMP180;56766;52.260;20.746;2022-11-20T05:11:20;100183.00;;;-4.80
69545;BMP180;56766;52.260;20.746;2022-11-20T05:13:49;100181.20;;;-4.80
69545;BMP180;56766;52.260;20.746;2022-11-20T05:16:20;100176.60;;;-4.88
69545;BMP180;56766;52.260;20.746;2022-11-20T05:18:47;100176.00;;;-4.90
69545;BMP180;56766;52.260;20.746;2022-11-20T05:21:14;100167.40;;;-4.90
69545;BMP180;56766;52.260;20.746;2022-11-20T05:23:42;100173.60;;;-4.90
69545;BMP180;56766;52.260;20.746;2022-11-20T05:26:17;100171.00;;;-4.90
69545;BMP180;56766;52.260;20.746;2022-11-20T05:28:45;100166.80;;;-4.90
69545;BMP180;56766;52.260;20.746;2022-11-20T05:31:19;100178.60;;;-4.90
69545;BMP180;56766;52.260;20.746;2022-11-20T05:33:46;100181.20;;;-4.90
69545;BMP180;56766;52.260;20.746;2022-11-20T05:36:15;100178.60;;;-4.90
69545;BMP180;56766;52.260;20.746;2022-11-20T05:38:43;100172.20;;;-4.80
69545;BMP180;56766;52.260;20.746;2022-11-20T05:41:17;100169.00;;;-4.80
69545;BMP180;56766;52.260;20.746;2022-11-20T05:43:47;100174.40;;;-4.70
69545;BMP180;56766;52.260;20.746;2022-11-20T05:46:19;100170.80;;;-4.70
69545;BMP180;56766;52.260;20.746;2022-11-20T05:48:46;100166.00;;;-4.66
69545;BMP180;56766;52.260;20.746;2022-11-20T05:51:17;100161.40;;;-4.60
69545;BMP180;56766;52.260;20.746;2022-11-20T05:53:45;100162.00;;;-4.60
69545;BMP180;56766;52.260;20.746;2022-11-20T05:56:19;100155.60;;;-4.60
69545;BMP180;56766;52.260;20.746;2022-11-20T05:58:47;100160.40;;;-4.60
69545;BMP180;56766;52.260;20.746;2022-11-20T06:01:24;100154.60;;;-4.68
69545;BMP180;56766;52.260;20.746;2022-11-20T06:03:53;100156.60;;;-4.70
69545;BMP180;56766;52.260;20.746;2022-11-20T06:06:20;100154.60;;;-4.70
69545;BMP180;56766;52.260;20.746;2022-11-20T06:08:48;100145.60;;;-4.70
69545;BMP180;56766;52.260;20.746;2022-11-20T06:11:16;100148.40;;;-4.60
69545;BMP180;56766;52.260;20.746;2022-11-20T06:13:44;100155.20;;;-4.60
69545;BMP180;56766;52.260;20.746;2022-11-20T06:16:15;100145.40;;;-4.70
69545;BMP180;56766;52.260;20.746;2022-11-20T06:18:42;100148.80;;;-4.66
69545;BMP180;56766;52.260;20.746;2022-11-20T06:21:13;100151.00;;;-4.60
69545;BMP180;56766;52.260;20.746;2022-11-20T06:23:42;100151.40;;;-4.70
69545;BMP180;56766;52.260;20.746;2022-11-20T06:26:19;100153.40;;;-4.70
69545;BMP180;56766;52.260;20.746;2022-11-20T06:28:46;100153.00;;;-4.70
69545;BMP180;56766;52.260;20.746;2022-11-20T06:31:16;100157.00;;;-4.62
69545;BMP180;56766;52.260;20.746;2022-11-20T06:33:44;100161.20;;;-4.60
69545;BMP180;56766;52.260;20.746;2022-11-20T06:36:14;100159.80;;;-4.50
69545;BMP180;56766;52.260;20.746;2022-11-20T06:38:42;100152.00;;;-4.44
69545;BMP180;56766;52.260;20.746;2022-11-20T06:41:17;100151.40;;;-4.40
69545;BMP180;56766;52.260;20.746;2022-11-20T06:43:44;100145.60;;;-4.40
69545;BMP180;56766;52.260;20.746;2022-11-20T06:46:13;100149.60;;;-4.36
69545;BMP180;56766;52.260;20.746;2022-11-20T06:48:40;100144.60;;;-4.38
69545;BMP180;56766;52.260;20.746;2022-11-20T06:51:07;100135.20;;;-4.36
69545;BMP180;56766;52.260;20.746;2022-11-20T06:53:36;100138.60;;;-4.36
69545;BMP180;56766;52.260;20.746;2022-11-20T06:56:04;100140.60;;;-4.30
69545;BMP180;56766;52.260;20.746;2022-11-20T06:58:34;100132.60;;;-4.30
69545;BMP180;56766;52.260;20.746;2022-11-20T07:01:11;100136.40;;;-4.30
69545;BMP180;56766;52.260;20.746;2022-11-20T07:03:40;100133.80;;;-4.20
69545;BMP180;56766;52.260;20.746;2022-11-20T07:06:09;100134.20;;;-4.12
69545;BMP180;56766;52.260;20.746;2022-11-20T07:08:35;100141.20;;;-4.10
69545;BMP180;56766;52.260;20.746;2022-11-20T07:11:06;100141.20;;;-4.00
69545;BMP180;56766;52.260;20.746;2022-11-20T07:13:33;100141.60;;;-4.00
69545;BMP180;56766;52.260;20.746;2022-11-20T07:16:04;100144.60;;;-3.90
69545;BMP180;56766;52.260;20.746;2022-11-20T07:18:32;100144.80;;;-3.80
69545;BMP180;56766;52.260;20.746;2022-11-20T07:21:04;100144.80;;;-3.70
69545;BMP180;56766;52.260;20.746;2022-11-20T07:23:31;100151.00;;;-3.66
69545;BMP180;56766;52.260;20.746;2022-11-20T07:26:03;100154.20;;;-3.56
69545;BMP180;56766;52.260;20.746;2022-11-20T07:28:30;100153.40;;;-3.50
69545;BMP180;56766;52.260;20.746;2022-11-20T07:30:57;100154.00;;;-3.40
69545;BMP180;56766;52.260;20.746;2022-11-20T07:33:23;100150.40;;;-3.30
69545;BMP180;56766;52.260;20.746;2022-11-20T07:35:50;100142.20;;;-3.30
69545;BMP180;56766;52.260;20.746;2022-11-20T07:38:17;100141.00;;;-3.20
69545;BMP180;56766;52.260;20.746;2022-11-20T07:40:43;100139.80;;;-3.10
69545;BMP180;56766;52.260;20.746;2022-11-20T07:43:10;100133.00;;;-3.00
69545;BMP180;56766;52.260;20.746;2022-11-20T07:45:37;100137.00;;;-2.90
69545;BMP180;56766;52.260;20.746;2022-11-20T07:48:04;100131.20;;;-2.86
69545;BMP180;56766;52.260;20.746;2022-11-20T07:50:30;100126.60;;;-2.78
69545;BMP180;56766;52.260;20.746;2022-11-20T07:53:03;100131.60;;;-2.70
69545;BMP180;56766;52.260;20.746;2022-11-20T07:55:30;100125.60;;;-2.70
69545;BMP180;56766;52.260;20.746;2022-11-20T07:57:57;100128.20;;;-2.60
69545;BMP180;56766;52.260;20.746;2022-11-20T08:00:26;100127.00;;;-2.56
69545;BMP180;56766;52.260;20.746;2022-11-20T08:02:53;100126.40;;;-2.50
69545;BMP180;56766;52.260;20.746;2022-11-20T08:05:20;100123.60;;;-2.40
69545;BMP180;56766;52.260;20.746;2022-11-20T08:07:46;100123.60;;;-2.30
69545;BMP180;56766;52.260;20.746;2022-11-20T08:10:15;100122.60;;;-2.28
69545;BMP180;56766;52.260;20.746;2022-11-20T08:12:50;100121.80;;;-2.26
69545;BMP180;56766;52.260;20.746;2022-11-20T08:15:39;100123.40;;;-2.30
69545;BMP180;56766;52.260;20.746;2022-11-20T08:18:11;100121.00;;;-2.30
69545;BMP180;56766;52.260;20.746;2022-11-20T08:20:38;100120.20;;;-2.40
69545;BMP180;56766;52.260;20.746;2022-11-20T08:23:07;100123.20;;;-2.30
69545;BMP180;56766;52.260;20.746;2022-11-20T08:25:37;100129.40;;;-2.30
69545;BMP180;56766;52.260;20.746;2022-11-20T08:28:09;100120.40;;;-2.26
69545;BMP180;56766;52.260;20.746;2022-11-20T08:30:37;100117.20;;;-2.20
69545;BMP180;56766;52.260;20.746;2022-11-20T08:33:08;100111.80;;;-2.10
69545;BMP180;56766;52.260;20.746;2022-11-20T08:35:37;100101.60;;;-2.10
69545;BMP180;56766;52.260;20.746;2022-11-20T08:38:06;100102.00;;;-1.98
69545;BMP180;56766;52.260;20.746;2022-11-20T08:40:33;100095.00;;;-1.90
69545;BMP180;56766;52.260;20.746;2022-11-20T08:43:00;100093.20;;;-1.80
69545;BMP180;56766;52.260;20.746;2022-11-20T08:45:27;100086.40;;;-1.70
69545;BMP180;56766;52.260;20.746;2022-11-20T08:47:53;100079.40;;;-1.66
69545;BMP180;56766;52.260;20.746;2022-11-20T08:50:25;100072.80;;;-1.50
69545;BMP180;56766;52.260;20.746;2022-11-20T08:52:52;100071.40;;;-1.38
69545;BMP180;56766;52.260;20.746;2022-11-20T08:55:19;100075.00;;;-1.20
69545;BMP180;56766;52.260;20.746;2022-11-20T08:57:45;100069.40;;;-0.92
69545;BMP180;56766;52.260;20.746;2022-11-20T09:00:13;100077.80;;;-0.70
69545;BMP180;56766;52.260;20.746;2022-11-20T09:02:40;100072.00;;;-0.50
69545;BMP180;56766;52.260;20.746;2022-11-20T09:05:07;100075.20;;;-0.30
69545;BMP180;56766;52.260;20.746;2022-11-20T09:07:33;100063.60;;;-0.20
69545;BMP180;56766;52.260;20.746;2022-11-20T09:10:00;100067.00;;;-0.10
69545;BMP180;56766;52.260;20.746;2022-11-20T09:12:27;100062.20;;;-0.10
69545;BMP180;56766;52.260;20.746;2022-11-20T09:14:53;100062.40;;;-0.06
69545;BMP180;56766;52.260;20.746;2022-11-20T09:17:20;100063.20;;;0.00
69545;BMP180;56766;52.260;20.746;2022-11-20T09:19:46;100065.60;;;0.10
69545;BMP180;56766;52.260;20.746;2022-11-20T09:22:13;100069.80;;;0.26
69545;BMP180;56766;52.260;20.746;2022-11-20T09:24:40;100063.40;;;0.40
69545;BMP180;56766;52.260;20.746;2022-11-20T09:27:08;100054.60;;;0.40
69545;BMP180;56766;52.260;20.746;2022-11-20T09:29:35;100047.80;;;0.40
69545;BMP180;56766;52.260;20.746;2022-11-20T09:32:02;100046.80;;;0.42
69545;BMP180;56766;52.260;20.746;2022-11-20T09:34:28;100046.60;;;0.50
69545;BMP180;56766;52.260;20.746;2022-11-20T09:36:55;100045.80;;;0.50
69545;BMP180;56766;52.260;20.746;2022-11-20T09:39:22;100040.00;;;0.60
69545;BMP180;56766;52.260;20.746;2022-11-20T09:42:26;100046.80;;;0.60
69545;BMP180;56766;52.260;20.746;2022-11-20T09:45:44;100032.00;;;0.60
69545;BMP180;56766;52.260;20.746;2022-11-20T09:51:36;100033.20;;;0.70
69545;BMP180;56766;52.260;20.746;2022-11-20T09:54:30;100033.60;;;0.70
69545;BMP180;56766;52.260;20.746;2022-11-20T09:57:09;100034.00;;;0.80
69545;BMP180;56766;52.260;20.746;2022-11-20T09:59:46;100032.60;;;0.90
69545;BMP180;56766;52.260;20.746;2022-11-20T10:05:25;100035.40;;;1.04
69545;BMP180;56766;52.260;20.746;2022-11-20T10:14:07;100026.80;;;1.30
69545;BMP180;56766;52.260;20.746;2022-11-20T10:22:55;100028.80;;;1.30
69545;BMP180;56766;52.260;20.746;2022-11-20T10:26:01;100023.20;;;1.30
69545;BMP180;56766;52.260;20.746;2022-11-20T10:31:42;100015.80;;;1.00
69545;BMP180;56766;52.260;20.746;2022-11-20T10:34:28;100022.40;;;0.98
69545;BMP180;56766;52.260;20.746;2022-11-20T10:37:02;100019.00;;;0.90
69545;BMP180;56766;52.260;20.746;2022-11-20T10:42:44;100022.60;;;0.96
69545;BMP180;56766;52.260;20.746;2022-11-20T10:48:15;100019.00;;;0.80
69545;BMP180;56766;52.260;20.746;2022-11-20T10:56:54;100017.40;;;0.80
69545;BMP180;56766;52.260;20.746;2022-11-20T11:02:22;100008.60;;;0.80
69545;BMP180;56766;52.260;20.746;2022-11-20T11:04:52;100004.40;;;0.80
69545;BMP180;56766;52.260;20.746;2022-11-20T11:07:39;100005.40;;;0.80
69545;BMP180;56766;52.260;20.746;2022-11-20T11:10:21;99992.40;;;0.76
69545;BMP180;56766;52.260;20.746;2022-11-20T11:12:49;99990.60;;;0.80
69545;BMP180;56766;52.260;20.746;2022-11-20T11:15:35;99993.40;;;0.80
69545;BMP180;56766;52.260;20.746;2022-11-20T11:18:03;99994.00;;;0.90
69545;BMP180;56766;52.260;20.746;2022-11-20T11:20:30;99986.60;;;0.90
69545;BMP180;56766;52.260;20.746;2022-11-20T11:22:59;99985.20;;;0.94
69545;BMP180;56766;52.260;20.746;2022-11-20T11:25:34;99983.00;;;1.00
69545;BMP180;56766;52.260;20.746;2022-11-20T11:28:22;99985.20;;;1.00
69545;BMP180;56766;52.260;20.746;2022-11-20T11:30:52;99986.60;;;1.02
69545;BMP180;56766;52.260;20.746;2022-11-20T11:33:24;99982.40;;;1.00
69545;BMP180;56766;52.260;20.746;2022-11-20T11:36:00;99975.40;;;1.04
69545;BMP180;56766;52.260;20.746;2022-11-20T11:38:42;99975.20;;;1.10
69545;BMP180;56766;52.260;20.746;2022-11-20T11:41:20;99982.00;;;1.16
69545;BMP180;56766;52.260;20.746;2022-11-20T11:44:12;99980.00;;;1.20
69545;BMP180;56766;52.260;20.746;2022-11-20T11:47:00;99975.40;;;1.24
69545;BMP180;56766;52.260;20.746;2022-11-20T11:49:27;99972.60;;;1.30
69545;BMP180;56766;52.260;20.746;2022-11-20T11:52:18;99971.60;;;1.30
69545;BMP180;56766;52.260;20.746;2022-11-20T11:54:55;99974.00;;;1.30
69545;BMP180;56766;52.260;20.746;2022-11-20T12:00:12;99971.00;;;1.30
69545;BMP180;56766;52.260;20.746;2022-11-20T12:05:20;99958.00;;;1.28
69545;BMP180;56766;52.260;20.746;2022-11-20T12:08:10;99955.00;;;1.30
69545;BMP180;56766;52.260;20.746;2022-11-20T12:14:02;99945.40;;;1.34
69545;BMP180;56766;52.260;20.746;2022-11-20T12:16:36;99947.60;;;1.32
69545;BMP180;56766;52.260;20.746;2022-11-20T12:19:12;99947.40;;;1.30
69545;BMP180;56766;52.260;20.746;2022-11-20T12:29:11;99936.20;;;1.30
69545;BMP180;56766;52.260;20.746;2022-11-20T12:31:38;99932.40;;;1.30
69545;BMP180;56766;52.260;20.746;2022-11-20T12:43:27;99920.00;;;1.20
69545;BMP180;56766;52.260;20.746;2022-11-20T12:52:13;99907.40;;;1.24
69545;BMP180;56766;52.260;20.746;2022-11-20T12:55:20;99913.20;;;1.20
69545;BMP180;56766;52.260;20.746;2022-11-20T12:58:11;99911.80;;;1.20
69545;BMP180;56766;52.260;20.746;2022-11-20T13:01:02;99905.60;;;1.10
69545;BMP180;56766;52.260;20.746;2022-11-20T13:03:57;99896.00;;;1.00
69545;BMP180;56766;52.260;20.746;2022-11-20T13:06:28;99895.00;;;0.90
69545;BMP180;56766;52.260;20.746;2022-11-20T13:08:56;99883.00;;;0.80
69545;BMP180;56766;52.260;20.746;2022-11-20T13:11:39;99883.80;;;0.70
69545;BMP180;56766;52.260;20.746;2022-11-20T13:14:37;99879.60;;;0.70
69545;BMP180;56766;52.260;20.746;2022-11-20T13:17:36;99884.60;;;0.70
69545;BMP180;56766;52.260;20.746;2022-11-20T13:20:16;99876.20;;;0.70
69545;BMP180;56766;52.260;20.746;2022-11-20T13:22:51;99876.40;;;0.70
69545;BMP180;56766;52.260;20.746;2022-11-20T13:25:37;99879.00;;;0.80
69545;BMP180;56766;52.260;20.746;2022-11-20T13:30:52;99882.40;;;0.80
69545;BMP180;56766;52.260;20.746;2022-11-20T13:33:36;99884.20;;;0.80
69545;BMP180;56766;52.260;20.746;2022-11-20T13:36:24;99884.80;;;0.80
69545;BMP180;56766;52.260;20.746;2022-11-20T13:38:55;99885.20;;;0.80
69545;BMP180;56766;52.260;20.746;2022-11-20T13:41:33;99891.60;;;0.80
69545;BMP180;56766;52.260;20.746;2022-11-20T13:44:21;99880.80;;;0.80
69545;BMP180;56766;52.260;20.746;2022-11-20T13:46:50;99868.00;;;0.70
69545;BMP180;56766;52.260;20.746;2022-11-20T13:49:30;99869.20;;;0.70
69545;BMP180;56766;52.260;20.746;2022-11-20T13:55:18;99859.00;;;0.52
69545;BMP180;56766;52.260;20.746;2022-11-20T14:00:29;99849.00;;;0.40
69545;BMP180;56766;52.260;20.746;2022-11-20T14:03:09;99850.80;;;0.40
69545;BMP180;56766;52.260;20.746;2022-11-20T14:05:56;99845.00;;;0.40
69545;BMP180;56766;52.260;20.746;2022-11-20T14:08:42;99844.00;;;0.30
69545;BMP180;56766;52.260;20.746;2022-11-20T14:11:20;99844.40;;;0.30
69545;BMP180;56766;52.260;20.746;2022-11-20T14:14:13;99848.00;;;0.20
69545;BMP180;56766;52.260;20.746;2022-11-20T14:16:40;99847.00;;;0.20
69545;BMP180;56766;52.260;20.746;2022-11-20T14:19:27;99851.20;;;0.10
69545;BMP180;56766;52.260;20.746;2022-11-20T14:22:18;99846.60;;;0.10
69545;BMP180;56766;52.260;20.746;2022-11-20T14:24:47;99843.40;;;0.00
69545;BMP180;56766;52.260;20.746;2022-11-20T14:27:19;99846.20;;;0.02
69545;BMP180;56766;52.260;20.746;2022-11-20T14:29:50;99852.00;;;0.00
69545;BMP180;56766;52.260;20.746;2022-11-20T14:32:22;99854.60;;;0.00
69545;BMP180;56766;52.260;20.746;2022-11-20T14:34:50;99859.40;;;0.00
69545;BMP180;56766;52.260;20.746;2022-11-20T14:37:24;99849.60;;;-0.10
69545;BMP180;56766;52.260;20.746;2022-11-20T14:39:55;99849.00;;;-0.10
69545;BMP180;56766;52.260;20.746;2022-11-20T14:42:28;99849.60;;;-0.10
69545;BMP180;56766;52.260;20.746;2022-11-20T14:44:58;99844.40;;;-0.10
69545;BMP180;56766;52.260;20.746;2022-11-20T14:47:31;99836.00;;;-0.10
69545;BMP180;56766;52.260;20.746;2022-11-20T14:50:00;99844.80;;;-0.10
69545;BMP180;56766;52.260;20.746;2022-11-20T14:52:28;99842.40;;;-0.10
69545;BMP180;56766;52.260;20.746;2022-11-20T14:54:58;99836.60;;;-0.10
69545;BMP180;56766;52.260;20.746;2022-11-20T14:57:35;99835.40;;;-0.20
69545;BMP180;56766;52.260;20.746;2022-11-20T15:02:46;99825.80;;;-0.20
69545;BMP180;56766;52.260;20.746;2022-11-20T15:05:16;99824.40;;;-0.20
69545;BMP180;56766;52.260;20.746;2022-11-20T15:07:51;99831.40;;;-0.20
69545;BMP180;56766;52.260;20.746;2022-11-20T15:12:58;99839.60;;;-0.30
69545;BMP180;56766;52.260;20.746;2022-11-20T15:15:52;99839.60;;;-0.30
69545;BMP180;56766;52.260;20.746;2022-11-20T15:18:40;99840.40;;;-0.32
69545;BMP180;56766;52.260;20.746;2022-11-20T15:21:14;99845.00;;;-0.38
69545;BMP180;56766;52.260;20.746;2022-11-20T15:23:42;99846.20;;;-0.40
69545;BMP180;56766;52.260;20.746;2022-11-20T15:26:13;99839.20;;;-0.40
69545;BMP180;56766;52.260;20.746;2022-11-20T15:28:44;99842.20;;;-0.40
69545;BMP180;56766;52.260;20.746;2022-11-20T15:31:14;99835.40;;;-0.42
69545;BMP180;56766;52.260;20.746;2022-11-20T15:33:42;99832.00;;;-0.48
69545;BMP180;56766;52.260;20.746;2022-11-20T15:36:10;99830.40;;;-0.50
69545;BMP180;56766;52.260;20.746;2022-11-20T15:38:36;99823.20;;;-0.54
69545;BMP180;56766;52.260;20.746;2022-11-20T15:41:03;99832.80;;;-0.60
69545;BMP180;56766;52.260;20.746;2022-11-20T15:43:30;99826.80;;;-0.60
69545;BMP180;56766;52.260;20.746;2022-11-20T15:46:09;99823.20;;;-0.70
69545;BMP180;56766;52.260;20.746;2022-11-20T15:48:49;99827.20;;;-0.80
69545;BMP180;56766;52.260;20.746;2022-11-20T15:53:58;99822.20;;;-1.00